sensor_id;sensor_type;location;lat;lon;timestamp;P1;durP1;ratioP1;P2;durP2;ratioP2
7971;SDS011;4031;49.758;6.120;2023-06-05T00:02:00;2.50;;;2.30;;
7971;SDS011;4031;49.758;6.120;2023-06-05T00:04:26;2.13;;;1.80;;
7971;SDS011;4031;49.758;6.120;2023-06-05T00:06:53;1.93;;;1.83;;
7971;SDS011;4031;49.758;6.120;2023-06-05T00:09:19;3.83;;;2.10;;
7971;SDS011;4031;49.758;6.120;2023-06-05T00:11:45;3.80;;;1.80;;
7971;SDS011;4031;49.758;6.120;2023-06-05T00:14:11;2.23;;;2.03;;
7971;SDS011;4031;49.758;6.120;2023-06-05T00:16:37;2.50;;;2.27;;
7971;SDS011;4031;49.758;6.120;2023-06-05T00:19:02;2.47;;;2.10;;
7971;SDS011;4031;49.758;6.120;2023-06-05T00:21:28;2.70;;;2.20;;
7971;SDS011;4031;49.758;6.120;2023-06-05T00:23:54;1.50;;;1.40;;
7971;SDS011;4031;49.758;6.120;2023-06-05T00:26:19;2.37;;;2.17;;
7971;SDS011;4031;49.758;6.120;2023-06-05T00:28:46;2.93;;;1.80;;
7971;SDS011;4031;49.758;6.120;2023-06-05T00:31:12;2.57;;;2.37;;
7971;SDS011;4031;49.758;6.120;2023-06-05T00:33:38;2.90;;;2.53;;
7971;SDS011;4031;49.758;6.120;2023-06-05T00:36:05;2.43;;;2.10;;
7971;SDS011;4031;49.758;6.120;2023-06-05T00:38:31;2.27;;;2.17;;
7971;SDS011;4031;49.758;6.120;2023-06-05T00:40:57;2.53;;;2.20;;
7971;SDS011;4031;49.758;6.120;2023-06-05T00:43:23;3.17;;;2.33;;
7971;SDS011;4031;49.758;6.120;2023-06-05T00:45:50;2.80;;;2.20;;
7971;SDS011;4031;49.758;6.120;2023-06-05T00:48:24;2.30;;;2.10;;
7971;SDS011;4031;49.758;6.120;2023-06-05T00:50:51;3.60;;;2.70;;
7971;SDS011;4031;49.758;6.120;2023-06-05T00:53:17;4.87;;;3.00;;
7971;SDS011;4031;49.758;6.120;2023-06-05T00:55:43;1.90;;;1.80;;
7971;SDS011;4031;49.758;6.120;2023-06-05T00:58:09;2.13;;;1.93;;
7971;SDS011;4031;49.758;6.120;2023-06-05T01:00:35;3.63;;;2.20;;
7971;SDS011;4031;49.758;6.120;2023-06-05T01:03:01;3.20;;;1.80;;
7971;SDS011;4031;49.758;6.120;2023-06-05T01:05:27;2.83;;;2.07;;
7971;SDS011;4031;49.758;6.120;2023-06-05T01:07:53;3.03;;;1.97;;
7971;SDS011;4031;49.758;6.120;2023-06-05T01:10:19;2.73;;;2.53;;
7971;SDS011;4031;49.758;6.120;2023-06-05T01:13:00;1.97;;;1.77;;
7971;SDS011;4031;49.758;6.120;2023-06-05T01:15:41;2.23;;;2.03;;
7971;SDS011;4031;49.758;6.120;2023-06-05T01:18:07;2.80;;;2.40;;
7971;SDS011;4031;49.758;6.120;2023-06-05T01:20:35;2.63;;;2.17;;
7971;SDS011;4031;49.758;6.120;2023-06-05T01:23:06;2.70;;;2.50;;
7971;SDS011;4031;49.758;6.120;2023-06-05T01:25:34;2.40;;;2.17;;
7971;SDS011;4031;49.758;6.120;2023-06-05T01:28:13;1.90;;;1.80;;
7971;SDS011;4031;49.758;6.120;2023-06-05T01:31:06;2.20;;;2.00;;
7971;SDS011;4031;49.758;6.120;2023-06-05T01:33:54;4.70;;;2.70;;
7971;SDS011;4031;49.758;6.120;2023-06-05T01:36:28;2.80;;;2.00;;
7971;SDS011;4031;49.758;6.120;2023-06-05T01:38:55;3.47;;;2.03;;
7971;SDS011;4031;49.758;6.120;2023-06-05T01:41:23;2.90;;;1.77;;
7971;SDS011;4031;49.758;6.120;2023-06-05T01:43:51;3.30;;;1.80;;
7971;SDS011;4031;49.758;6.120;2023-06-05T01:46:18;2.47;;;2.13;;
7971;SDS011;4031;49.758;6.120;2023-06-05T01:48:46;2.93;;;2.50;;
7971;SDS011;4031;49.758;6.120;2023-06-05T01:51:12;2.67;;;2.43;;
7971;SDS011;4031;49.758;6.120;2023-06-05T01:53:38;4.27;;;2.50;;
7971;SDS011;4031;49.758;6.120;2023-06-05T01:56:04;2.17;;;1.73;;
7971;SDS011;4031;49.758;6.120;2023-06-05T01:58:31;3.40;;;2.23;;
7971;SDS011;4031;49.758;6.120;2023-06-05T02:00:57;2.50;;;2.30;;
7971;SDS011;4031;49.758;6.120;2023-06-05T02:03:23;2.60;;;2.13;;
7971;SDS011;4031;49.758;6.120;2023-06-05T02:05:49;4.53;;;2.10;;
7971;SDS011;4031;49.758;6.120;2023-06-05T02:08:16;3.30;;;2.00;;
7971;SDS011;4031;49.758;6.120;2023-06-05T02:10:47;2.80;;;2.53;;
7971;SDS011;4031;49.758;6.120;2023-06-05T02:13:14;3.50;;;2.33;;
7971;SDS011;4031;49.758;6.120;2023-06-05T02:15:40;2.17;;;2.00;;
7971;SDS011;4031;49.758;6.120;2023-06-05T02:18:06;1.87;;;1.73;;
7971;SDS011;4031;49.758;6.120;2023-06-05T02:20:32;3.03;;;2.33;;
7971;SDS011;4031;49.758;6.120;2023-06-05T02:23:00;2.87;;;2.07;;
7971;SDS011;4031;49.758;6.120;2023-06-05T02:25:25;2.77;;;2.10;;
7971;SDS011;4031;49.758;6.120;2023-06-05T02:27:52;6.60;;;2.50;;
7971;SDS011;4031;49.758;6.120;2023-06-05T02:30:18;3.00;;;1.90;;
7971;SDS011;4031;49.758;6.120;2023-06-05T02:32:45;2.67;;;2.20;;
7971;SDS011;4031;49.758;6.120;2023-06-05T02:35:11;3.33;;;3.03;;
7971;SDS011;4031;49.758;6.120;2023-06-05T02:37:38;2.60;;;2.13;;
7971;SDS011;4031;49.758;6.120;2023-06-05T02:40:12;2.50;;;2.30;;
7971;SDS011;4031;49.758;6.120;2023-06-05T02:42:39;4.03;;;1.87;;
7971;SDS011;4031;49.758;6.120;2023-06-05T02:45:06;2.43;;;2.20;;
7971;SDS011;4031;49.758;6.120;2023-06-05T02:47:33;3.03;;;2.30;;
7971;SDS011;4031;49.758;6.120;2023-06-05T02:49:59;4.63;;;2.20;;
7971;SDS011;4031;49.758;6.120;2023-06-05T02:52:26;5.47;;;2.43;;
7971;SDS011;4031;49.758;6.120;2023-06-05T02:54:57;2.73;;;2.10;;
7971;SDS011;4031;49.758;6.120;2023-06-05T02:57:22;2.33;;;2.20;;
7971;SDS011;4031;49.758;6.120;2023-06-05T02:59:48;5.27;;;2.70;;
7971;SDS011;4031;49.758;6.120;2023-06-05T03:02:14;3.00;;;1.93;;
7971;SDS011;4031;49.758;6.120;2023-06-05T03:04:40;3.13;;;2.37;;
7971;SDS011;4031;49.758;6.120;2023-06-05T03:07:07;2.53;;;2.13;;
7971;SDS011;4031;49.758;6.120;2023-06-05T03:09:34;2.40;;;2.10;;
7971;SDS011;4031;49.758;6.120;2023-06-05T03:12:01;2.70;;;2.20;;
7971;SDS011;4031;49.758;6.120;2023-06-05T03:14:27;1.50;;;1.40;;
7971;SDS011;4031;49.758;6.120;2023-06-05T03:16:53;2.60;;;2.40;;
7971;SDS011;4031;49.758;6.120;2023-06-05T03:19:19;2.50;;;2.30;;
7971;SDS011;4031;49.758;6.120;2023-06-05T03:21:45;3.40;;;2.60;;
7971;SDS011;4031;49.758;6.120;2023-06-05T03:24:12;1.80;;;1.70;;
7971;SDS011;4031;49.758;6.120;2023-06-05T03:26:42;3.00;;;2.70;;
7971;SDS011;4031;49.758;6.120;2023-06-05T03:29:09;4.83;;;2.60;;
7971;SDS011;4031;49.758;6.120;2023-06-05T03:31:36;3.30;;;2.50;;
7971;SDS011;4031;49.758;6.120;2023-06-05T03:34:02;2.63;;;2.37;;
7971;SDS011;4031;49.758;6.120;2023-06-05T03:36:29;3.53;;;2.60;;
7971;SDS011;4031;49.758;6.120;2023-06-05T03:38:57;3.53;;;2.80;;
7971;SDS011;4031;49.758;6.120;2023-06-05T03:41:23;5.83;;;1.93;;
7971;SDS011;4031;49.758;6.120;2023-06-05T03:43:49;3.00;;;2.13;;
7971;SDS011;4031;49.758;6.120;2023-06-05T03:46:15;2.17;;;1.97;;
7971;SDS011;4031;49.758;6.120;2023-06-05T03:48:47;2.57;;;2.23;;
7971;SDS011;4031;49.758;6.120;2023-06-05T03:51:23;2.90;;;2.27;;
7971;SDS011;4031;49.758;6.120;2023-06-05T03:53:54;2.40;;;2.20;;
7971;SDS011;4031;49.758;6.120;2023-06-05T03:56:23;2.50;;;2.20;;
7971;SDS011;4031;49.758;6.120;2023-06-05T03:58:53;2.20;;;1.87;;
7971;SDS011;4031;49.758;6.120;2023-06-05T04:01:20;3.00;;;2.40;;
7971;SDS011;4031;49.758;6.120;2023-06-05T04:03:46;2.30;;;2.13;;
7971;SDS011;4031;49.758;6.120;2023-06-05T04:06:12;2.63;;;2.00;;
7971;SDS011;4031;49.758;6.120;2023-06-05T04:08:37;3.33;;;2.40;;
7971;SDS011;4031;49.758;6.120;2023-06-05T04:11:03;2.90;;;2.00;;
7971;SDS011;4031;49.758;6.120;2023-06-05T04:13:29;2.77;;;2.47;;
7971;SDS011;4031;49.758;6.120;2023-06-05T04:15:54;2.83;;;2.63;;
7971;SDS011;4031;49.758;6.120;2023-06-05T04:18:20;2.90;;;2.40;;
7971;SDS011;4031;49.758;6.120;2023-06-05T04:20:47;2.30;;;2.03;;
7971;SDS011;4031;49.758;6.120;2023-06-05T04:23:12;1.93;;;1.50;;
7971;SDS011;4031;49.758;6.120;2023-06-05T04:25:39;4.57;;;2.17;;
7971;SDS011;4031;49.758;6.120;2023-06-05T04:28:10;3.23;;;2.27;;
7971;SDS011;4031;49.758;6.120;2023-06-05T04:30:36;3.67;;;1.87;;
7971;SDS011;4031;49.758;6.120;2023-06-05T04:33:02;2.10;;;2.00;;
7971;SDS011;4031;49.758;6.120;2023-06-05T04:35:31;3.70;;;2.97;;
7971;SDS011;4031;49.758;6.120;2023-06-05T04:37:58;2.37;;;2.17;;
7971;SDS011;4031;49.758;6.120;2023-06-05T04:40:24;2.77;;;2.13;;
7971;SDS011;4031;49.758;6.120;2023-06-05T04:42:50;2.60;;;1.97;;
7971;SDS011;4031;49.758;6.120;2023-06-05T04:45:18;3.03;;;2.10;;
7971;SDS011;4031;49.758;6.120;2023-06-05T04:47:44;3.13;;;2.33;;
7971;SDS011;4031;49.758;6.120;2023-06-05T04:50:20;3.40;;;2.43;;
7971;SDS011;4031;49.758;6.120;2023-06-05T04:52:53;2.17;;;2.03;;
7971;SDS011;4031;49.758;6.120;2023-06-05T04:55:19;2.77;;;2.20;;
7971;SDS011;4031;49.758;6.120;2023-06-05T04:57:46;1.90;;;1.80;;
7971;SDS011;4031;49.758;6.120;2023-06-05T05:00:13;3.60;;;2.70;;
7971;SDS011;4031;49.758;6.120;2023-06-05T05:02:40;4.30;;;2.80;;
7971;SDS011;4031;49.758;6.120;2023-06-05T05:05:06;2.03;;;1.80;;
7971;SDS011;4031;49.758;6.120;2023-06-05T05:07:32;2.60;;;2.40;;
7971;SDS011;4031;49.758;6.120;2023-06-05T05:09:58;2.30;;;2.10;;
7971;SDS011;4031;49.758;6.120;2023-06-05T05:12:24;3.47;;;2.40;;
7971;SDS011;4031;49.758;6.120;2023-06-05T05:14:50;2.47;;;2.23;;
7971;SDS011;4031;49.758;6.120;2023-06-05T05:17:16;3.30;;;2.40;;
7971;SDS011;4031;49.758;6.120;2023-06-05T05:19:44;2.80;;;2.27;;
7971;SDS011;4031;49.758;6.120;2023-06-05T05:22:10;4.13;;;2.13;;
7971;SDS011;4031;49.758;6.120;2023-06-05T05:24:36;2.50;;;2.27;;
7971;SDS011;4031;49.758;6.120;2023-06-05T05:27:02;2.07;;;1.87;;
7971;SDS011;4031;49.758;6.120;2023-06-05T05:29:28;2.13;;;1.97;;
7971;SDS011;4031;49.758;6.120;2023-06-05T05:31:54;2.77;;;2.30;;
7971;SDS011;4031;49.758;6.120;2023-06-05T05:34:20;2.67;;;2.30;;
7971;SDS011;4031;49.758;6.120;2023-06-05T05:36:46;2.27;;;2.07;;
7971;SDS011;4031;49.758;6.120;2023-06-05T05:39:12;2.10;;;1.90;;
7971;SDS011;4031;49.758;6.120;2023-06-05T05:41:38;2.10;;;1.90;;
7971;SDS011;4031;49.758;6.120;2023-06-05T05:44:03;1.83;;;1.70;;
7971;SDS011;4031;49.758;6.120;2023-06-05T05:46:30;2.10;;;2.00;;
7971;SDS011;4031;49.758;6.120;2023-06-05T05:48:56;2.00;;;1.90;;
7971;SDS011;4031;49.758;6.120;2023-06-05T05:51:22;2.40;;;2.20;;
7971;SDS011;4031;49.758;6.120;2023-06-05T05:53:48;2.00;;;1.80;;
7971;SDS011;4031;49.758;6.120;2023-06-05T05:56:14;2.93;;;1.70;;
7971;SDS011;4031;49.758;6.120;2023-06-05T05:58:40;2.13;;;1.87;;
7971;SDS011;4031;49.758;6.120;2023-06-05T06:01:07;1.73;;;1.63;;
7971;SDS011;4031;49.758;6.120;2023-06-05T06:03:33;1.90;;;1.73;;
7971;SDS011;4031;49.758;6.120;2023-06-05T06:06:02;2.50;;;2.30;;
7971;SDS011;4031;49.758;6.120;2023-06-05T06:08:32;1.97;;;1.70;;
7971;SDS011;4031;49.758;6.120;2023-06-05T06:11:01;2.60;;;2.37;;
7971;SDS011;4031;49.758;6.120;2023-06-05T06:13:31;2.73;;;1.77;;
7971;SDS011;4031;49.758;6.120;2023-06-05T06:15:58;3.10;;;1.77;;
7971;SDS011;4031;49.758;6.120;2023-06-05T06:18:25;1.50;;;1.40;;
7971;SDS011;4031;49.758;6.120;2023-06-05T06:20:51;2.73;;;1.80;;
7971;SDS011;4031;49.758;6.120;2023-06-05T06:23:17;1.83;;;1.70;;
7971;SDS011;4031;49.758;6.120;2023-06-05T06:25:42;1.60;;;1.43;;
7971;SDS011;4031;49.758;6.120;2023-06-05T06:28:08;2.10;;;1.67;;
7971;SDS011;4031;49.758;6.120;2023-06-05T06:30:34;1.77;;;1.67;;
7971;SDS011;4031;49.758;6.120;2023-06-05T06:33:01;2.37;;;1.97;;
7971;SDS011;4031;49.758;6.120;2023-06-05T06:35:29;1.83;;;1.40;;
7971;SDS011;4031;49.758;6.120;2023-06-05T06:37:56;2.37;;;1.57;;
7971;SDS011;4031;49.758;6.120;2023-06-05T06:40:23;2.10;;;1.70;;
7971;SDS011;4031;49.758;6.120;2023-06-05T06:42:49;1.40;;;1.30;;
7971;SDS011;4031;49.758;6.120;2023-06-05T06:45:16;1.43;;;1.20;;
7971;SDS011;4031;49.758;6.120;2023-06-05T06:47:42;2.27;;;1.47;;
7971;SDS011;4031;49.758;6.120;2023-06-05T06:50:09;1.60;;;1.50;;
7971;SDS011;4031;49.758;6.120;2023-06-05T06:52:35;1.63;;;1.50;;
7971;SDS011;4031;49.758;6.120;2023-06-05T06:55:01;1.43;;;1.33;;
7971;SDS011;4031;49.758;6.120;2023-06-05T06:57:27;1.47;;;1.37;;
7971;SDS011;4031;49.758;6.120;2023-06-05T06:59:52;2.50;;;1.60;;
7971;SDS011;4031;49.758;6.120;2023-06-05T07:02:19;1.30;;;1.20;;
7971;SDS011;4031;49.758;6.120;2023-06-05T07:04:49;1.67;;;1.33;;
7971;SDS011;4031;49.758;6.120;2023-06-05T07:07:15;1.83;;;1.30;;
7971;SDS011;4031;49.758;6.120;2023-06-05T07:09:43;1.27;;;1.17;;
7971;SDS011;4031;49.758;6.120;2023-06-05T07:12:11;2.00;;;1.57;;
7971;SDS011;4031;49.758;6.120;2023-06-05T07:14:38;1.33;;;1.23;;
7971;SDS011;4031;49.758;6.120;2023-06-05T07:17:05;1.37;;;1.07;;
7971;SDS011;4031;49.758;6.120;2023-06-05T07:19:31;1.37;;;1.27;;
7971;SDS011;4031;49.758;6.120;2023-06-05T07:21:59;1.67;;;1.10;;
7971;SDS011;4031;49.758;6.120;2023-06-05T07:24:27;1.50;;;1.00;;
7971;SDS011;4031;49.758;6.120;2023-06-05T07:26:55;1.53;;;1.43;;
7971;SDS011;4031;49.758;6.120;2023-06-05T07:29:22;1.47;;;1.00;;
7971;SDS011;4031;49.758;6.120;2023-06-05T07:31:49;2.13;;;1.30;;
7971;SDS011;4031;49.758;6.120;2023-06-05T07:34:17;1.10;;;1.00;;
7971;SDS011;4031;49.758;6.120;2023-06-05T07:36:44;1.67;;;1.13;;
7971;SDS011;4031;49.758;6.120;2023-06-05T07:39:11;1.23;;;1.13;;
7971;SDS011;4031;49.758;6.120;2023-06-05T07:41:38;1.13;;;1.03;;
7971;SDS011;4031;49.758;6.120;2023-06-05T07:44:10;1.57;;;1.17;;
7971;SDS011;4031;49.758;6.120;2023-06-05T07:46:41;1.97;;;1.20;;
7971;SDS011;4031;49.758;6.120;2023-06-05T07:49:08;2.03;;;1.60;;
7971;SDS011;4031;49.758;6.120;2023-06-05T07:51:34;2.20;;;1.33;;
7971;SDS011;4031;49.758;6.120;2023-06-05T07:54:06;2.10;;;1.30;;
7971;SDS011;4031;49.758;6.120;2023-06-05T07:56:36;1.13;;;1.03;;
7971;SDS011;4031;49.758;6.120;2023-06-05T07:59:03;1.40;;;1.30;;
7971;SDS011;4031;49.758;6.120;2023-06-05T08:01:30;1.13;;;1.03;;
7971;SDS011;4031;49.758;6.120;2023-06-05T08:04:01;1.40;;;1.20;;
7971;SDS011;4031;49.758;6.120;2023-06-05T08:06:31;1.33;;;1.23;;
7971;SDS011;4031;49.758;6.120;2023-06-05T08:08:58;1.40;;;1.30;;
7971;SDS011;4031;49.758;6.120;2023-06-05T08:11:24;1.50;;;1.40;;
7971;SDS011;4031;49.758;6.120;2023-06-05T08:13:51;1.80;;;1.37;;
7971;SDS011;4031;49.758;6.120;2023-06-05T08:16:17;1.63;;;1.47;;
7971;SDS011;4031;49.758;6.120;2023-06-05T08:18:42;1.30;;;1.20;;
7971;SDS011;4031;49.758;6.120;2023-06-05T08:21:08;1.60;;;1.30;;
7971;SDS011;4031;49.758;6.120;2023-06-05T08:23:34;1.50;;;1.37;;
7971;SDS011;4031;49.758;6.120;2023-06-05T08:26:00;1.27;;;1.17;;
7971;SDS011;4031;49.758;6.120;2023-06-05T08:28:26;1.80;;;1.40;;
7971;SDS011;4031;49.758;6.120;2023-06-05T08:30:52;1.40;;;1.10;;
7971;SDS011;4031;49.758;6.120;2023-06-05T08:33:21;2.10;;;1.40;;
7971;SDS011;4031;49.758;6.120;2023-06-05T08:35:47;1.50;;;1.40;;
7971;SDS011;4031;49.758;6.120;2023-06-05T08:38:13;1.60;;;1.27;;
7971;SDS011;4031;49.758;6.120;2023-06-05T08:40:38;2.17;;;1.53;;
7971;SDS011;4031;49.758;6.120;2023-06-05T08:43:04;1.40;;;1.30;;
7971;SDS011;4031;49.758;6.120;2023-06-05T08:45:31;1.00;;;0.90;;
7971;SDS011;4031;49.758;6.120;2023-06-05T08:47:58;1.40;;;1.30;;
7971;SDS011;4031;49.758;6.120;2023-06-05T08:50:28;1.63;;;1.50;;
7971;SDS011;4031;49.758;6.120;2023-06-05T08:52:56;1.50;;;1.40;;
7971;SDS011;4031;49.758;6.120;2023-06-05T08:55:25;1.37;;;1.23;;
7971;SDS011;4031;49.758;6.120;2023-06-05T08:57:54;1.73;;;1.40;;
7971;SDS011;4031;49.758;6.120;2023-06-05T09:00:21;1.13;;;1.00;;
7971;SDS011;4031;49.758;6.120;2023-06-05T09:02:47;2.00;;;1.10;;
7971;SDS011;4031;49.758;6.120;2023-06-05T09:05:13;1.43;;;1.33;;
7971;SDS011;4031;49.758;6.120;2023-06-05T09:07:40;1.37;;;1.17;;
7971;SDS011;4031;49.758;6.120;2023-06-05T09:10:06;1.23;;;1.13;;
7971;SDS011;4031;49.758;6.120;2023-06-05T09:12:54;1.60;;;1.03;;
7971;SDS011;4031;49.758;6.120;2023-06-05T09:15:25;1.60;;;1.40;;
7971;SDS011;4031;49.758;6.120;2023-06-05T09:18:03;2.20;;;1.67;;
7971;SDS011;4031;49.758;6.120;2023-06-05T09:20:37;2.00;;;1.50;;
7971;SDS011;4031;49.758;6.120;2023-06-05T09:23:25;1.70;;;1.27;;
7971;SDS011;4031;49.758;6.120;2023-06-05T09:25:53;1.90;;;1.70;;
7971;SDS011;4031;49.758;6.120;2023-06-05T09:28:23;1.43;;;1.33;;
7971;SDS011;4031;49.758;6.120;2023-06-05T09:31:00;1.33;;;1.20;;
7971;SDS011;4031;49.758;6.120;2023-06-05T09:33:28;1.37;;;1.27;;
7971;SDS011;4031;49.758;6.120;2023-06-05T09:38:33;2.80;;;1.50;;
7971;SDS011;4031;49.758;6.120;2023-06-05T09:41:03;1.63;;;1.40;;
7971;SDS011;4031;49.758;6.120;2023-06-05T09:43:34;2.37;;;1.47;;
7971;SDS011;4031;49.758;6.120;2023-06-05T09:46:08;1.77;;;1.67;;
7971;SDS011;4031;49.758;6.120;2023-06-05T09:48:36;2.20;;;1.50;;
7971;SDS011;4031;49.758;6.120;2023-06-05T09:51:15;1.50;;;1.27;;
7971;SDS011;4031;49.758;6.120;2023-06-05T09:56:18;2.70;;;2.00;;
7971;SDS011;4031;49.758;6.120;2023-06-05T09:58:51;1.70;;;1.60;;
7971;SDS011;4031;49.758;6.120;2023-06-05T10:01:22;1.60;;;1.37;;
7971;SDS011;4031;49.758;6.120;2023-06-05T10:03:58;3.13;;;1.47;;
7971;SDS011;4031;49.758;6.120;2023-06-05T10:06:28;1.73;;;1.63;;
7971;SDS011;4031;49.758;6.120;2023-06-05T10:08:55;2.40;;;1.60;;
7971;SDS011;4031;49.758;6.120;2023-06-05T10:11:22;2.03;;;1.60;;
7971;SDS011;4031;49.758;6.120;2023-06-05T10:13:50;1.60;;;1.50;;
7971;SDS011;4031;49.758;6.120;2023-06-05T10:16:16;1.90;;;1.80;;
7971;SDS011;4031;49.758;6.120;2023-06-05T10:18:47;1.63;;;1.53;;
7971;SDS011;4031;49.758;6.120;2023-06-05T10:21:17;1.73;;;1.63;;
7971;SDS011;4031;49.758;6.120;2023-06-05T10:23:45;1.80;;;1.70;;
7971;SDS011;4031;49.758;6.120;2023-06-05T10:35:05;1.63;;;1.53;;
7971;SDS011;4031;49.758;6.120;2023-06-05T10:38:15;1.80;;;1.53;;
7971;SDS011;4031;49.758;6.120;2023-06-05T10:51:45;1.77;;;1.67;;
7971;SDS011;4031;49.758;6.120;2023-06-05T10:56:53;1.30;;;1.20;;
7971;SDS011;4031;49.758;6.120;2023-06-05T10:59:22;2.20;;;2.10;;
7971;SDS011;4031;49.758;6.120;2023-06-05T11:07:22;1.87;;;1.77;;
7971;SDS011;4031;49.758;6.120;2023-06-05T11:10:26;2.73;;;1.70;;
7971;SDS011;4031;49.758;6.120;2023-06-05T11:15:14;1.60;;;1.50;;
7971;SDS011;4031;49.758;6.120;2023-06-05T11:17:42;1.60;;;1.50;;
7971;SDS011;4031;49.758;6.120;2023-06-05T11:20:48;2.70;;;1.70;;
7971;SDS011;4031;49.758;6.120;2023-06-05T11:30:45;1.87;;;1.40;;
7971;SDS011;4031;49.758;6.120;2023-06-05T11:33:14;2.27;;;1.70;;
7971;SDS011;4031;49.758;6.120;2023-06-05T11:35:42;2.50;;;1.63;;
7971;SDS011;4031;49.758;6.120;2023-06-05T11:38:11;2.33;;;2.20;;
7971;SDS011;4031;49.758;6.120;2023-06-05T11:40:39;1.47;;;1.37;;
7971;SDS011;4031;49.758;6.120;2023-06-05T11:43:07;2.40;;;1.90;;
7971;SDS011;4031;49.758;6.120;2023-06-05T11:45:36;2.87;;;1.50;;
7971;SDS011;4031;49.758;6.120;2023-06-05T11:48:11;4.20;;;1.87;;
7971;SDS011;4031;49.758;6.120;2023-06-05T11:50:38;1.87;;;1.70;;
7971;SDS011;4031;49.758;6.120;2023-06-05T11:53:31;2.27;;;1.63;;
7971;SDS011;4031;49.758;6.120;2023-06-05T11:55:57;1.80;;;1.53;;
7971;SDS011;4031;49.758;6.120;2023-06-05T11:58:29;1.83;;;1.73;;
7971;SDS011;4031;49.758;6.120;2023-06-05T12:01:17;1.93;;;1.80;;
7971;SDS011;4031;49.758;6.120;2023-06-05T12:03:47;1.90;;;1.47;;
7971;SDS011;4031;49.758;6.120;2023-06-05T12:06:40;1.80;;;1.70;;
7971;SDS011;4031;49.758;6.120;2023-06-05T12:09:09;1.70;;;1.50;;
7971;SDS011;4031;49.758;6.120;2023-06-05T12:11:36;1.83;;;1.50;;
7971;SDS011;4031;49.758;6.120;2023-06-05T12:14:03;1.93;;;1.73;;
7971;SDS011;4031;49.758;6.120;2023-06-05T12:16:39;2.53;;;1.73;;
7971;SDS011;4031;49.758;6.120;2023-06-05T12:21:43;2.03;;;1.83;;
7971;SDS011;4031;49.758;6.120;2023-06-05T12:24:10;1.60;;;1.50;;
7971;SDS011;4031;49.758;6.120;2023-06-05T12:26:55;1.70;;;1.50;;
7971;SDS011;4031;49.758;6.120;2023-06-05T12:29:27;1.87;;;1.77;;
7971;SDS011;4031;49.758;6.120;2023-06-05T12:31:56;1.60;;;1.50;;
7971;SDS011;4031;49.758;6.120;2023-06-05T12:37:26;1.60;;;1.50;;
7971;SDS011;4031;49.758;6.120;2023-06-05T12:39:56;3.20;;;1.70;;
7971;SDS011;4031;49.758;6.120;2023-06-05T12:42:26;1.90;;;1.70;;
7971;SDS011;4031;49.758;6.120;2023-06-05T12:44:53;2.53;;;1.93;;
7971;SDS011;4031;49.758;6.120;2023-06-05T12:47:19;1.83;;;1.50;;
7971;SDS011;4031;49.758;6.120;2023-06-05T12:49:45;2.70;;;1.73;;
7971;SDS011;4031;49.758;6.120;2023-06-05T12:52:12;1.87;;;1.77;;
7971;SDS011;4031;49.758;6.120;2023-06-05T12:54:38;3.10;;;2.10;;
7971;SDS011;4031;49.758;6.120;2023-06-05T12:57:06;2.53;;;1.40;;
7971;SDS011;4031;49.758;6.120;2023-06-05T12:59:32;2.13;;;1.97;;
7971;SDS011;4031;49.758;6.120;2023-06-05T13:01:58;3.23;;;1.77;;
7971;SDS011;4031;49.758;6.120;2023-06-05T13:04:24;2.23;;;2.03;;
7971;SDS011;4031;49.758;6.120;2023-06-05T13:06:50;1.73;;;1.63;;
7971;SDS011;4031;49.758;6.120;2023-06-05T13:09:16;1.73;;;1.63;;
7971;SDS011;4031;49.758;6.120;2023-06-05T13:11:43;2.30;;;2.10;;
7971;SDS011;4031;49.758;6.120;2023-06-05T13:14:09;3.17;;;1.80;;
7971;SDS011;4031;49.758;6.120;2023-06-05T13:16:34;1.83;;;1.73;;
7971;SDS011;4031;49.758;6.120;2023-06-05T13:19:00;1.93;;;1.83;;
7971;SDS011;4031;49.758;6.120;2023-06-05T13:21:26;1.63;;;1.53;;
7971;SDS011;4031;49.758;6.120;2023-06-05T13:23:51;2.40;;;2.20;;
7971;SDS011;4031;49.758;6.120;2023-06-05T13:26:17;2.37;;;2.10;;
7971;SDS011;4031;49.758;6.120;2023-06-05T13:28:43;1.60;;;1.50;;
7971;SDS011;4031;49.758;6.120;2023-06-05T13:31:11;2.20;;;1.97;;
7971;SDS011;4031;49.758;6.120;2023-06-05T13:33:39;1.70;;;1.60;;
7971;SDS011;4031;49.758;6.120;2023-06-05T13:36:05;1.97;;;1.77;;
7971;SDS011;4031;49.758;6.120;2023-06-05T13:38:33;1.97;;;1.87;;
7971;SDS011;4031;49.758;6.120;2023-06-05T13:41:02;2.40;;;2.20;;
7971;SDS011;4031;49.758;6.120;2023-06-05T13:43:28;1.77;;;1.67;;
7971;SDS011;4031;49.758;6.120;2023-06-05T13:45:54;3.30;;;2.30;;
7971;SDS011;4031;49.758;6.120;2023-06-05T13:48:20;2.10;;;1.90;;
7971;SDS011;4031;49.758;6.120;2023-06-05T13:50:46;1.67;;;1.20;;
7971;SDS011;4031;49.758;6.120;2023-06-05T13:53:11;2.07;;;1.87;;
7971;SDS011;4031;49.758;6.120;2023-06-05T13:55:37;4.60;;;2.30;;
7971;SDS011;4031;49.758;6.120;2023-06-05T13:58:04;2.03;;;1.90;;
7971;SDS011;4031;49.758;6.120;2023-06-05T14:00:31;1.60;;;1.50;;
7971;SDS011;4031;49.758;6.120;2023-06-05T14:02:58;2.53;;;1.40;;
7971;SDS011;4031;49.758;6.120;2023-06-05T14:05:24;1.97;;;1.87;;
7971;SDS011;4031;49.758;6.120;2023-06-05T14:07:50;1.30;;;1.20;;
7971;SDS011;4031;49.758;6.120;2023-06-05T14:10:18;2.00;;;1.53;;
7971;SDS011;4031;49.758;6.120;2023-06-05T14:12:45;2.90;;;1.70;;
7971;SDS011;4031;49.758;6.120;2023-06-05T14:15:11;1.67;;;1.57;;
7971;SDS011;4031;49.758;6.120;2023-06-05T14:17:37;2.20;;;1.90;;
7971;SDS011;4031;49.758;6.120;2023-06-05T14:20:03;1.77;;;1.67;;
7971;SDS011;4031;49.758;6.120;2023-06-05T14:22:29;1.90;;;1.73;;
7971;SDS011;4031;49.758;6.120;2023-06-05T14:24:55;2.03;;;1.80;;
7971;SDS011;4031;49.758;6.120;2023-06-05T14:27:21;2.03;;;1.90;;
7971;SDS011;4031;49.758;6.120;2023-06-05T14:29:46;1.90;;;1.80;;
7971;SDS011;4031;49.758;6.120;2023-06-05T14:32:12;1.90;;;1.70;;
7971;SDS011;4031;49.758;6.120;2023-06-05T14:34:38;1.97;;;1.70;;
7971;SDS011;4031;49.758;6.120;2023-06-05T14:37:03;2.37;;;2.03;;
7971;SDS011;4031;49.758;6.120;2023-06-05T14:39:29;1.67;;;1.57;;
7971;SDS011;4031;49.758;6.120;2023-06-05T14:41:55;2.67;;;1.90;;
7971;SDS011;4031;49.758;6.120;2023-06-05T14:44:21;2.00;;;1.80;;
7971;SDS011;4031;49.758;6.120;2023-06-05T14:46:46;3.00;;;1.70;;
7971;SDS011;4031;49.758;6.120;2023-06-05T14:49:12;2.50;;;1.47;;
7971;SDS011;4031;49.758;6.120;2023-06-05T14:51:38;3.03;;;1.60;;
7971;SDS011;4031;49.758;6.120;2023-06-05T14:54:04;3.77;;;1.80;;
7971;SDS011;4031;49.758;6.120;2023-06-05T14:56:30;2.00;;;1.83;;
7971;SDS011;4031;49.758;6.120;2023-06-05T14:58:56;2.97;;;1.93;;
7971;SDS011;4031;49.758;6.120;2023-06-05T15:01:22;2.23;;;1.93;;
7971;SDS011;4031;49.758;6.120;2023-06-05T15:03:47;1.87;;;1.63;;
7971;SDS011;4031;49.758;6.120;2023-06-05T15:06:13;1.97;;;1.70;;
7971;SDS011;4031;49.758;6.120;2023-06-05T15:08:39;1.70;;;1.60;;
7971;SDS011;4031;49.758;6.120;2023-06-05T15:11:05;2.17;;;1.73;;
7971;SDS011;4031;49.758;6.120;2023-06-05T15:13:30;1.97;;;1.77;;
7971;SDS011;4031;49.758;6.120;2023-06-05T15:15:56;1.53;;;1.40;;
7971;SDS011;4031;49.758;6.120;2023-06-05T15:18:24;2.00;;;1.63;;
7971;SDS011;4031;49.758;6.120;2023-06-05T15:20:50;2.00;;;1.90;;
7971;SDS011;4031;49.758;6.120;2023-06-05T15:23:16;1.73;;;1.63;;
7971;SDS011;4031;49.758;6.120;2023-06-05T15:25:42;1.97;;;1.33;;
7971;SDS011;4031;49.758;6.120;2023-06-05T15:28:08;3.37;;;1.70;;
7971;SDS011;4031;49.758;6.120;2023-06-05T15:30:33;1.73;;;1.63;;
7971;SDS011;4031;49.758;6.120;2023-06-05T15:32:59;1.60;;;1.50;;
7971;SDS011;4031;49.758;6.120;2023-06-05T15:35:25;1.93;;;1.77;;
7971;SDS011;4031;49.758;6.120;2023-06-05T15:37:52;2.80;;;1.83;;
7971;SDS011;4031;49.758;6.120;2023-06-05T15:40:18;2.00;;;1.80;;
7971;SDS011;4031;49.758;6.120;2023-06-05T15:42:44;1.50;;;1.40;;
7971;SDS011;4031;49.758;6.120;2023-06-05T15:45:10;1.80;;;1.53;;
7971;SDS011;4031;49.758;6.120;2023-06-05T15:47:38;3.00;;;1.87;;
7971;SDS011;4031;49.758;6.120;2023-06-05T15:50:04;1.63;;;1.53;;
7971;SDS011;4031;49.758;6.120;2023-06-05T15:52:31;1.77;;;1.60;;
7971;SDS011;4031;49.758;6.120;2023-06-05T15:55:01;2.00;;;1.83;;
7971;SDS011;4031;49.758;6.120;2023-06-05T15:57:27;3.10;;;1.63;;
7971;SDS011;4031;49.758;6.120;2023-06-05T15:59:53;2.47;;;1.63;;
7971;SDS011;4031;49.758;6.120;2023-06-05T16:02:19;1.77;;;1.60;;
7971;SDS011;4031;49.758;6.120;2023-06-05T16:04:46;1.67;;;1.50;;
7971;SDS011;4031;49.758;6.120;2023-06-05T16:07:12;1.70;;;1.60;;
7971;SDS011;4031;49.758;6.120;2023-06-05T16:09:38;3.07;;;1.70;;